createdAt,value
2022-10-22T00:00:03.869Z,1010.52
2022-10-22T00:00:34.281Z,1010.52
2022-10-22T00:01:05.279Z,1010.53
2022-10-22T00:01:36.504Z,1010.54
2022-10-22T00:02:07.082Z,1010.54
2022-10-22T00:02:37.628Z,1010.54
2022-10-22T00:03:08.298Z,1010.57
2022-10-22T00:03:38.993Z,1010.58
2022-10-22T00:04:09.458Z,1010.59
2022-10-22T00:04:40.647Z,1010.60
2022-10-22T00:05:11.285Z,1010.59
2022-10-22T00:05:41.796Z,1010.59
2022-10-22T00:06:12.724Z,1010.58
2022-10-22T00:06:43.893Z,1010.58
2022-10-22T00:07:14.398Z,1010.59
2022-10-22T00:07:45.031Z,1010.58
2022-10-22T00:08:15.548Z,1010.59
2022-10-22T00:08:46.079Z,1010.59
2022-10-22T00:09:16.597Z,1010.61
2022-10-22T00:09:47.080Z,1010.62
2022-10-22T00:10:17.833Z,1010.66
2022-10-22T00:10:49.022Z,1010.62
2022-10-22T00:11:19.526Z,1010.65
2022-10-22T00:11:50.019Z,1010.66
2022-10-22T00:12:20.998Z,1010.65
2022-10-22T00:12:51.898Z,1010.63
2022-10-22T00:13:22.901Z,1010.63
2022-10-22T00:13:53.550Z,1010.61
2022-10-22T00:14:24.055Z,1010.64
2022-10-22T00:14:55.024Z,1010.64
2022-10-22T00:15:26.161Z,1010.64
2022-10-22T00:15:56.573Z,1010.65
2022-10-22T00:16:27.551Z,1010.68
2022-10-22T00:16:58.686Z,1010.69
2022-10-22T00:17:29.227Z,1010.73
2022-10-22T00:17:59.691Z,1010.73
2022-10-22T00:18:30.646Z,1010.75
2022-10-22T00:19:01.580Z,1010.77
2022-10-22T00:19:32.581Z,1010.78
2022-10-22T00:20:03.302Z,1010.77
2022-10-22T00:20:33.855Z,1010.76
2022-10-22T00:21:04.846Z,1010.75
2022-10-22T00:21:35.303Z,1010.73
2022-10-22T00:22:06.217Z,1010.73
2022-10-22T00:22:37.168Z,1010.73
2022-10-22T00:23:07.862Z,1010.74
2022-10-22T00:23:38.382Z,1010.75
2022-10-22T00:24:08.816Z,1010.75
2022-10-22T00:24:39.780Z,1010.76
2022-10-22T00:25:10.710Z,1010.75
2022-10-22T00:25:41.780Z,1010.77
2022-10-22T00:26:12.373Z,1010.75
2022-10-22T00:26:42.890Z,1010.77
2022-10-22T00:27:13.826Z,1010.78
2022-10-22T00:27:44.854Z,1010.77
2022-10-22T00:28:15.364Z,1010.78
2022-10-22T00:28:45.946Z,1010.81
2022-10-22T00:29:16.412Z,1010.81
2022-10-22T00:29:47.385Z,1010.85
2022-10-22T00:30:18.666Z,1010.86
2022-10-22T00:30:49.202Z,1010.89
2022-10-22T00:31:20.160Z,1010.91
2022-10-22T00:31:51.482Z,1010.92
2022-10-22T00:32:22.056Z,1010.96
2022-10-22T00:32:52.564Z,1010.95
2022-10-22T00:33:23.004Z,1010.96
2022-10-22T00:33:53.989Z,1010.98
2022-10-22T00:34:24.948Z,1010.97
2022-10-22T00:34:56.066Z,1010.98
2022-10-22T00:35:26.645Z,1011.00
2022-10-22T00:35:57.173Z,1010.97
2022-10-22T00:36:27.615Z,1010.97
2022-10-22T00:36:58.568Z,1010.97
2022-10-22T00:37:29.576Z,1010.98
2022-10-22T00:38:00.192Z,1010.98
2022-10-22T00:38:30.728Z,1010.98
2022-10-22T00:39:01.192Z,1010.98
2022-10-22T00:39:32.165Z,1010.98
2022-10-22T00:40:03.167Z,1010.95
2022-10-22T00:40:34.098Z,1010.96
2022-10-22T00:41:05.339Z,1010.97
2022-10-22T00:41:35.864Z,1010.97
2022-10-22T00:42:06.556Z,1010.92
2022-10-22T00:42:37.031Z,1010.91
2022-10-22T00:43:07.610Z,1010.90
2022-10-22T00:43:38.570Z,1010.90
2022-10-22T00:44:09.762Z,1010.87
2022-10-22T00:44:40.205Z,1010.84
2022-10-22T00:45:11.109Z,1010.85
2022-10-22T00:45:42.131Z,1010.85
2022-10-22T00:46:12.624Z,1010.84
2022-10-22T00:46:43.553Z,1010.85
2022-10-22T00:47:14.775Z,1010.83
2022-10-22T00:47:45.317Z,1010.82
2022-10-22T00:48:17.756Z,1010.79
2022-10-22T00:48:46.696Z,1010.77
2022-10-22T00:49:17.748Z,1010.76
2022-10-22T00:49:48.173Z,1010.76
2022-10-22T00:50:19.340Z,1010.75
2022-10-22T00:50:49.901Z,1010.73
2022-10-22T00:51:20.374Z,1010.73
2022-10-22T00:51:51.541Z,1010.71
2022-10-22T00:52:22.057Z,1010.70
2022-10-22T00:52:52.999Z,1010.70
2022-10-22T00:53:24.212Z,1010.72
2022-10-22T00:53:54.791Z,1010.74
2022-10-22T00:54:25.250Z,1010.73
2022-10-22T00:54:56.250Z,1010.74
2022-10-22T00:55:26.753Z,1010.75
2022-10-22T00:55:57.766Z,1010.75
2022-10-22T00:56:28.910Z,1010.77
2022-10-22T00:56:59.441Z,1010.77
2022-10-22T00:57:30.423Z,1010.77
2022-10-22T00:58:01.329Z,1010.78
2022-10-22T00:58:32.433Z,1010.81
2022-10-22T00:59:02.949Z,1010.83
2022-10-22T00:59:33.696Z,1010.84
2022-10-22T01:00:04.181Z,1010.87
2022-10-22T01:00:34.657Z,1010.90
2022-10-22T01:01:05.730Z,1010.94
2022-10-22T01:01:36.330Z,1010.94
2022-10-22T01:02:06.815Z,1010.95
2022-10-22T01:02:38.415Z,1010.97
2022-10-22T01:03:08.570Z,1011.01
2022-10-22T01:03:39.599Z,1010.99
2022-10-22T01:04:10.082Z,1011.01
2022-10-22T01:04:41.087Z,1011.00
2022-10-22T01:05:11.569Z,1011.00
2022-10-22T01:05:42.983Z,1011.03
2022-10-22T01:06:13.451Z,1011.05
2022-10-22T01:06:44.381Z,1011.05
2022-10-22T01:07:15.385Z,1011.06
2022-10-22T01:07:46.392Z,1011.08
2022-10-22T01:08:17.062Z,1011.06
2022-10-22T01:08:47.901Z,1011.07
2022-10-22T01:09:18.454Z,1011.06
2022-10-22T01:09:48.927Z,1011.06
2022-10-22T01:10:19.913Z,1011.07
2022-10-22T01:10:50.928Z,1011.06
2022-10-22T01:11:21.547Z,1011.06
2022-10-22T01:11:52.092Z,1011.07
2022-10-22T01:12:22.526Z,1011.07
2022-10-22T01:12:53.561Z,1011.05
2022-10-22T01:13:24.116Z,1011.05
2022-10-22T01:13:54.643Z,1011.05
2022-10-22T01:14:25.354Z,1011.03
2022-10-22T01:14:56.066Z,1011.03
2022-10-22T01:15:26.488Z,1011.01
2022-10-22T01:15:57.436Z,1010.98
2022-10-22T01:16:28.034Z,1010.99
2022-10-22T01:16:58.586Z,1010.98
2022-10-22T01:17:29.224Z,1010.98
2022-10-22T01:17:59.704Z,1010.95
2022-10-22T01:18:30.661Z,1010.92
2022-10-22T01:19:01.673Z,1010.90
2022-10-22T01:19:32.597Z,1010.89
2022-10-22T01:20:03.612Z,1010.87
2022-10-22T01:20:34.233Z,1010.87
2022-10-22T01:21:04.714Z,1010.86
2022-10-22T01:21:35.645Z,1010.88
2022-10-22T01:22:06.579Z,1010.89
2022-10-22T01:22:37.505Z,1010.88
2022-10-22T01:23:08.444Z,1010.91
2022-10-22T01:23:39.278Z,1010.90
2022-10-22T01:24:09.772Z,1010.87
2022-10-22T01:24:40.783Z,1010.88
2022-10-22T01:25:11.370Z,1010.85
2022-10-22T01:25:41.947Z,1010.84
2022-10-22T01:26:12.494Z,1010.83
2022-10-22T01:26:43.275Z,1010.83
2022-10-22T01:27:13.907Z,1010.83
2022-10-22T01:27:44.356Z,1010.80
2022-10-22T01:28:15.378Z,1010.79
2022-10-22T01:28:45.878Z,1010.77
2022-10-22T01:29:16.467Z,1010.75
2022-10-22T01:29:47.120Z,1010.73
2022-10-22T01:30:17.511Z,1010.73
2022-10-22T01:30:48.441Z,1010.75
2022-10-22T01:31:19.424Z,1010.74
2022-10-22T01:31:50.549Z,1010.73
2022-10-22T01:32:21.007Z,1010.74
2022-10-22T01:32:52.089Z,1010.76
2022-10-22T01:33:22.587Z,1010.78
2022-10-22T01:33:53.620Z,1010.80
2022-10-22T01:34:24.132Z,1010.81
2022-10-22T01:34:54.553Z,1010.85
2022-10-22T01:35:25.322Z,1010.89
2022-10-22T01:35:56.022Z,1010.91
2022-10-22T01:36:26.551Z,1010.92
2022-10-22T01:36:57.781Z,1010.94
2022-10-22T01:37:28.282Z,1010.96
2022-10-22T01:37:58.888Z,1010.96
2022-10-22T01:38:29.430Z,1010.94
2022-10-22T01:39:00.141Z,1010.96
2022-10-22T01:39:30.669Z,1010.97
2022-10-22T01:40:01.149Z,1010.96
2022-10-22T01:40:34.762Z,1010.99
2022-10-22T01:41:02.756Z,1011.00
2022-10-22T01:41:33.693Z,1011.00
2022-10-22T01:42:04.867Z,1011.03
2022-10-22T01:42:35.404Z,1011.05
2022-10-22T01:43:05.952Z,1011.07
2022-10-22T01:43:36.396Z,1011.12
2022-10-22T01:44:07.469Z,1011.15
2022-10-22T01:44:37.945Z,1011.19
2022-10-22T01:45:09.078Z,1011.18
2022-10-22T01:45:39.561Z,1011.16
2022-10-22T01:46:10.496Z,1011.16
2022-10-22T01:46:41.485Z,1011.16
2022-10-22T01:47:12.416Z,1011.16
2022-10-22T01:47:43.866Z,1011.15
2022-10-22T01:48:14.144Z,1011.19
2022-10-22T01:48:44.649Z,1011.24
2022-10-22T01:49:15.604Z,1011.23
2022-10-22T01:49:46.589Z,1011.29
2022-10-22T01:50:17.517Z,1011.31
2022-10-22T01:50:48.534Z,1011.32
2022-10-22T01:51:19.159Z,1011.36
2022-10-22T01:51:49.645Z,1011.36
2022-10-22T01:52:20.581Z,1011.36
2022-10-22T01:52:51.484Z,1011.39
2022-10-22T01:53:22.406Z,1011.40
2022-10-22T01:53:53.332Z,1011.38
2022-10-22T01:54:24.552Z,1011.36
2022-10-22T01:54:55.046Z,1011.36
2022-10-22T01:55:25.470Z,1011.35
2022-10-22T01:55:56.460Z,1011.34
2022-10-22T01:56:27.448Z,1011.32
2022-10-22T01:56:58.452Z,1011.33
2022-10-22T01:58:50.202Z,1011.32
2022-10-22T01:59:20.608Z,1011.34
2022-10-22T01:59:51.591Z,1011.31
2022-10-22T02:00:22.093Z,1011.30
2022-10-22T02:00:53.252Z,1011.28
2022-10-22T02:01:23.805Z,1011.29
2022-10-22T02:01:54.343Z,1011.30
2022-10-22T02:02:24.908Z,1011.29
2022-10-22T02:02:55.447Z,1011.31
2022-10-22T02:03:25.949Z,1011.32
2022-10-22T02:03:56.847Z,1011.31
2022-10-22T02:04:27.374Z,1011.30
2022-10-22T02:04:57.843Z,1011.32
2022-10-22T02:05:28.920Z,1011.33
2022-10-22T02:05:59.369Z,1011.36
2022-10-22T02:06:30.422Z,1011.38
2022-10-22T02:07:01.131Z,1011.39
2022-10-22T02:07:31.638Z,1011.41
2022-10-22T02:08:02.590Z,1011.44
2022-10-22T02:08:33.644Z,1011.45
2022-10-22T02:09:04.286Z,1011.45
2022-10-22T02:09:34.833Z,1011.48
2022-10-22T02:10:05.963Z,1011.47
2022-10-22T02:10:36.436Z,1011.48
2022-10-22T02:11:07.388Z,1011.48
2022-10-22T02:11:38.357Z,1011.48
2022-10-22T02:12:09.325Z,1011.48
2022-10-22T02:12:40.664Z,1011.45
2022-10-22T02:13:11.277Z,1011.44
2022-10-22T02:13:41.773Z,1011.44
2022-10-22T02:14:12.739Z,1011.43
2022-10-22T02:14:43.678Z,1011.44
2022-10-22T02:15:14.631Z,1011.43
2022-10-22T02:15:45.584Z,1011.44
2022-10-22T02:16:16.740Z,1011.45
2022-10-22T02:16:47.269Z,1011.47
2022-10-22T02:17:18.079Z,1011.49
2022-10-22T02:17:49.073Z,1011.49
2022-10-22T02:18:20.099Z,1011.50
2022-10-22T02:18:50.639Z,1011.49
2022-10-22T02:19:21.228Z,1011.48
2022-10-22T02:19:51.726Z,1011.49
2022-10-22T02:20:22.642Z,1011.48
2022-10-22T02:20:53.562Z,1011.47
2022-10-22T02:21:24.492Z,1011.47
2022-10-22T02:21:55.668Z,1011.45
2022-10-22T02:22:26.268Z,1011.43
2022-10-22T02:22:56.794Z,1011.43
2022-10-22T02:23:27.701Z,1011.43
2022-10-22T02:23:58.622Z,1011.43
2022-10-22T02:24:29.553Z,1011.43
2022-10-22T02:25:00.561Z,1011.44
2022-10-22T02:25:31.700Z,1011.44
2022-10-22T02:26:02.215Z,1011.45
2022-10-22T02:26:32.701Z,1011.42
2022-10-22T02:27:03.719Z,1011.42
2022-10-22T02:27:34.299Z,1011.41
2022-10-22T02:28:04.919Z,1011.40
2022-10-22T02:28:35.665Z,1011.39
2022-10-22T02:29:06.146Z,1011.40
2022-10-22T02:29:37.190Z,1011.39
2022-10-22T02:30:07.921Z,1011.40
2022-10-22T02:30:38.406Z,1011.40
2022-10-22T02:31:11.323Z,1011.40
2022-10-22T02:31:40.408Z,1011.41
2022-10-22T02:32:10.898Z,1011.39
2022-10-22T02:32:42.116Z,1011.40
2022-10-22T02:33:12.788Z,1011.39
2022-10-22T02:33:43.813Z,1011.36
2022-10-22T02:34:14.284Z,1011.38
2022-10-22T02:34:45.418Z,1011.36
2022-10-22T02:35:17.835Z,1011.34
2022-10-22T02:35:46.882Z,1011.32
2022-10-22T02:36:17.449Z,1011.31
2022-10-22T02:36:50.324Z,1011.28
2022-10-22T02:37:18.792Z,1011.27
2022-10-22T02:37:49.503Z,1011.29
2022-10-22T02:38:20.055Z,1011.25
2022-10-22T02:38:50.586Z,1011.25
2022-10-22T02:39:21.100Z,1011.24
2022-10-22T02:39:52.086Z,1011.23
2022-10-22T02:40:23.103Z,1011.22
2022-10-22T02:40:53.719Z,1011.19
2022-10-22T02:41:24.203Z,1011.18
2022-10-22T02:41:55.217Z,1011.14
2022-10-22T02:42:25.684Z,1011.13
2022-10-22T02:42:56.609Z,1011.13
2022-10-22T02:43:27.542Z,1011.12
2022-10-22T02:43:58.671Z,1011.13
2022-10-22T02:44:29.426Z,1011.16
2022-10-22T02:44:59.917Z,1011.16
2022-10-22T02:45:30.855Z,1011.18
2022-10-22T02:46:01.803Z,1011.21
2022-10-22T02:46:32.831Z,1011.27
2022-10-22T02:47:03.480Z,1011.28
2022-10-22T02:47:33.958Z,1011.31
2022-10-22T02:48:04.976Z,1011.32
2022-10-22T02:48:35.407Z,1011.36
2022-10-22T02:49:06.344Z,1011.36
2022-10-22T02:49:37.274Z,1011.36
2022-10-22T02:50:10.298Z,1011.38
2022-10-22T02:50:38.971Z,1011.36
2022-10-22T02:51:09.493Z,1011.34
2022-10-22T02:51:40.430Z,1011.31
2022-10-22T02:52:11.349Z,1011.30
2022-10-22T02:52:42.852Z,1011.31
2022-10-22T02:53:13.229Z,1011.32
2022-10-22T02:53:43.729Z,1011.34
2022-10-22T02:54:14.666Z,1011.35
2022-10-22T02:54:45.650Z,1011.37
2022-10-22T02:55:16.601Z,1011.39
2022-10-22T02:55:47.622Z,1011.39
2022-10-22T02:56:18.321Z,1011.39
2022-10-22T02:56:48.813Z,1011.38
2022-10-22T02:57:50.255Z,1011.35
2022-10-22T02:58:21.199Z,1011.34
2022-10-22T02:58:52.149Z,1011.33
2022-10-22T02:59:22.867Z,1011.33
2022-10-22T02:59:53.362Z,1011.32
2022-10-22T03:00:24.310Z,1011.32
2022-10-22T03:00:55.369Z,1011.33
2022-10-22T03:01:25.921Z,1011.32
2022-10-22T03:01:56.386Z,1011.33
2022-10-22T03:02:27.509Z,1011.36
2022-10-22T03:02:57.992Z,1011.38
2022-10-22T03:03:28.922Z,1011.42
2022-10-22T03:03:59.937Z,1011.42
2022-10-22T03:04:30.410Z,1011.46
2022-10-22T03:05:01.401Z,1011.48
2022-10-22T03:05:32.125Z,1011.49
2022-10-22T03:06:02.625Z,1011.52
2022-10-22T03:06:33.146Z,1011.53
2022-10-22T03:07:04.066Z,1011.54
2022-10-22T03:07:35.023Z,1011.55
2022-10-22T03:08:06.038Z,1011.57
2022-10-22T03:08:36.709Z,1011.59
2022-10-22T03:09:07.412Z,1011.57
2022-10-22T03:09:37.944Z,1011.57
2022-10-22T03:10:08.875Z,1011.57
2022-10-22T03:10:39.891Z,1011.57
2022-10-22T03:11:10.835Z,1011.57
2022-10-22T03:11:42.054Z,1011.59
2022-10-22T03:12:12.590Z,1011.61
2022-10-22T03:12:43.140Z,1011.63
2022-10-22T03:13:13.653Z,1011.62
2022-10-22T03:13:44.170Z,1011.62
2022-10-22T03:14:15.124Z,1011.61
2022-10-22T03:14:46.300Z,1011.59
2022-10-22T03:15:16.730Z,1011.58
2022-10-22T03:15:47.275Z,1011.56
2022-10-22T03:16:18.243Z,1011.54
2022-10-22T03:16:49.179Z,1011.54
2022-10-22T03:17:20.190Z,1011.56
2022-10-22T03:17:50.895Z,1011.56
2022-10-22T03:18:21.409Z,1011.58
2022-10-22T03:18:51.853Z,1011.61
2022-10-22T03:19:22.769Z,1011.64
2022-10-22T03:19:53.699Z,1011.67
2022-10-22T03:20:24.680Z,1011.69
2022-10-22T03:20:55.865Z,1011.69
2022-10-22T03:21:26.585Z,1011.71
2022-10-22T03:21:57.101Z,1011.72
2022-10-22T03:22:28.039Z,1011.72
2022-10-22T03:22:59.001Z,1011.74
2022-10-22T03:23:30.028Z,1011.73
2022-10-22T03:24:00.681Z,1011.73
2022-10-22T03:24:31.203Z,1011.72
2022-10-22T03:25:01.641Z,1011.72
2022-10-22T03:25:32.555Z,1011.71
2022-10-22T03:26:03.588Z,1011.71
2022-10-22T03:26:34.037Z,1011.73
2022-10-22T03:27:05.210Z,1011.74
2022-10-22T03:27:35.765Z,1011.75
2022-10-22T03:28:06.414Z,1011.76
2022-10-22T03:28:36.926Z,1011.77
2022-10-22T03:29:07.867Z,1011.77
2022-10-22T03:29:38.800Z,1011.74
2022-10-22T03:30:09.927Z,1011.74
2022-10-22T03:30:40.503Z,1011.73
2022-10-22T03:31:10.999Z,1011.69
2022-10-22T03:31:41.568Z,1011.70
2022-10-22T03:32:12.155Z,1011.71
2022-10-22T03:32:42.661Z,1011.74
2022-10-22T03:33:13.795Z,1011.73
2022-10-22T03:33:44.350Z,1011.74
2022-10-22T03:34:14.919Z,1011.76
2022-10-22T03:34:45.371Z,1011.78
2022-10-22T03:35:16.336Z,1011.76
2022-10-22T03:35:47.302Z,1011.72
2022-10-22T03:36:18.477Z,1011.73
2022-10-22T03:36:49.153Z,1011.74
2022-10-22T03:37:19.575Z,1011.77
2022-10-22T03:37:50.514Z,1011.76
2022-10-22T03:38:21.439Z,1011.76
2022-10-22T03:38:52.442Z,1011.76
2022-10-22T03:39:23.164Z,1011.77
2022-10-22T03:39:53.637Z,1011.75
2022-10-22T03:40:24.651Z,1011.74
2022-10-22T03:40:55.135Z,1011.72
2022-10-22T03:41:26.075Z,1011.70
2022-10-22T03:41:57.007Z,1011.70
2022-10-22T03:42:28.238Z,1011.70
2022-10-22T03:42:58.757Z,1011.66
2022-10-22T03:43:29.711Z,1011.64
2022-10-22T03:44:00.684Z,1011.65
2022-10-22T03:44:31.766Z,1011.64
2022-10-22T03:45:02.269Z,1011.59
2022-10-22T03:45:32.983Z,1011.59
2022-10-22T03:46:03.661Z,1011.61
2022-10-22T03:46:34.179Z,1011.62
2022-10-22T03:47:05.133Z,1011.61
2022-10-22T03:47:36.085Z,1011.61
2022-10-22T03:48:07.175Z,1011.63
2022-10-22T03:48:39.618Z,1011.64
2022-10-22T03:49:08.763Z,1011.65
2022-10-22T03:49:39.264Z,1011.66
2022-10-22T03:50:10.206Z,1011.66
2022-10-22T03:50:41.215Z,1011.68
2022-10-22T03:51:11.699Z,1011.69
2022-10-22T03:51:42.825Z,1011.72
2022-10-22T03:52:13.344Z,1011.72
2022-10-22T03:52:43.842Z,1011.74
2022-10-22T03:53:14.367Z,1011.74
2022-10-22T03:53:44.966Z,1011.76
2022-10-22T03:54:15.487Z,1011.75
2022-10-22T03:54:46.196Z,1011.74
2022-10-22T03:55:16.721Z,1011.76
2022-10-22T03:55:47.310Z,1011.74
2022-10-22T03:56:17.904Z,1011.71
2022-10-22T03:56:48.350Z,1011.69
2022-10-22T03:57:19.282Z,1011.67
2022-10-22T03:57:50.462Z,1011.67
2022-10-22T03:58:20.970Z,1011.64
2022-10-22T03:58:51.891Z,1011.64
2022-10-22T03:59:22.844Z,1011.64
2022-10-22T03:59:53.835Z,1011.63
2022-10-22T04:00:24.281Z,1011.64
2022-10-22T04:00:55.485Z,1011.64
2022-10-22T04:01:26.103Z,1011.66
2022-10-22T04:01:56.653Z,1011.67
2022-10-22T04:02:27.129Z,1011.69
2022-10-22T04:02:58.149Z,1011.69
2022-10-22T04:03:28.618Z,1011.70
2022-10-22T04:03:59.770Z,1011.71
2022-10-22T04:04:30.343Z,1011.73
2022-10-22T04:05:00.897Z,1011.76
2022-10-22T04:05:31.372Z,1011.75
2022-10-22T04:06:02.283Z,1011.76
2022-10-22T04:06:33.199Z,1011.77
2022-10-22T04:07:04.397Z,1011.79
2022-10-22T04:07:34.907Z,1011.80
2022-10-22T04:08:05.815Z,1011.82
2022-10-22T04:08:36.772Z,1011.83
2022-10-22T04:09:07.323Z,1011.84
2022-10-22T04:09:38.212Z,1011.84
2022-10-22T04:10:09.317Z,1011.84
2022-10-22T04:10:39.825Z,1011.84
2022-10-22T04:11:10.319Z,1011.87
2022-10-22T04:11:41.252Z,1011.91
2022-10-22T04:12:12.252Z,1011.92
2022-10-22T04:12:43.203Z,1011.95
2022-10-22T04:13:14.327Z,1011.94
2022-10-22T04:13:44.830Z,1011.98
2022-10-22T04:14:15.729Z,1012.00
2022-10-22T04:14:46.694Z,1012.03
2022-10-22T04:15:17.673Z,1012.03
2022-10-22T04:15:48.584Z,1012.04
2022-10-22T04:16:19.761Z,1012.07
2022-10-22T04:16:50.291Z,1012.10
2022-10-22T04:17:20.926Z,1012.12
2022-10-22T04:17:51.428Z,1012.12
2022-10-22T04:18:22.430Z,1012.18
2022-10-22T04:18:52.849Z,1012.19
2022-10-22T04:19:23.981Z,1012.21
2022-10-22T04:19:54.488Z,1012.22
2022-10-22T04:20:25.409Z,1012.24
2022-10-22T04:20:56.415Z,1012.24
2022-10-22T04:21:26.984Z,1012.25
2022-10-22T04:21:57.486Z,1012.25
2022-10-22T04:22:28.080Z,1012.24
2022-10-22T04:22:58.569Z,1012.22
2022-10-22T04:23:29.546Z,1012.21
2022-10-22T04:24:00.672Z,1012.22
2022-10-22T04:24:31.170Z,1012.22
2022-10-22T04:25:02.181Z,1012.19
2022-10-22T04:25:32.814Z,1012.21
2022-10-22T04:26:03.310Z,1012.23
2022-10-22T04:26:34.242Z,1012.24
2022-10-22T04:27:05.274Z,1012.25
2022-10-22T04:27:35.704Z,1012.26
2022-10-22T04:28:06.708Z,1012.25
2022-10-22T04:28:37.885Z,1012.26
2022-10-22T04:29:11.873Z,1012.26
2022-10-22T04:29:40.327Z,1012.26
2022-10-22T04:30:09.840Z,1012.22
2022-10-22T04:30:40.276Z,1012.21
2022-10-22T04:31:11.474Z,1012.20
2022-10-22T04:31:41.986Z,1012.21
2022-10-22T04:32:12.503Z,1012.21
2022-10-22T04:32:43.028Z,1012.23
2022-10-22T04:33:13.454Z,1012.22
2022-10-22T04:33:44.433Z,1012.23
2022-10-22T04:34:15.564Z,1012.23
2022-10-22T04:34:46.071Z,1012.22
2022-10-22T04:35:17.096Z,1012.23
2022-10-22T04:35:47.585Z,1012.24
2022-10-22T04:36:18.584Z,1012.25
2022-10-22T04:36:49.090Z,1012.23
2022-10-22T04:37:19.787Z,1012.23
2022-10-22T04:37:50.282Z,1012.22
2022-10-22T04:38:21.309Z,1012.20
2022-10-22T04:38:51.814Z,1012.21
2022-10-22T04:39:22.794Z,1012.20
2022-10-22T04:39:53.744Z,1012.22
2022-10-22T04:40:24.914Z,1012.21
2022-10-22T04:40:55.341Z,1012.20
2022-10-22T04:41:26.331Z,1012.21
2022-10-22T04:41:56.838Z,1012.21
2022-10-22T04:42:27.764Z,1012.22
2022-10-22T04:42:58.746Z,1012.21
2022-10-22T04:43:29.839Z,1012.21
2022-10-22T04:44:00.336Z,1012.21
2022-10-22T04:44:31.272Z,1012.21
2022-10-22T04:45:02.282Z,1012.23
2022-10-22T04:45:32.757Z,1012.23
2022-10-22T04:46:03.681Z,1012.22
2022-10-22T04:46:34.805Z,1012.24
2022-10-22T04:47:05.318Z,1012.24
2022-10-22T04:47:36.245Z,1012.25
2022-10-22T04:48:07.191Z,1012.25
2022-10-22T04:48:38.136Z,1012.25
2022-10-22T04:49:09.065Z,1012.26
2022-10-22T04:49:40.230Z,1012.29
2022-10-22T04:50:10.728Z,1012.31
2022-10-22T04:50:41.736Z,1012.33
2022-10-22T04:51:12.240Z,1012.33
2022-10-22T04:51:43.226Z,1012.33
2022-10-22T04:52:13.717Z,1012.31
2022-10-22T04:52:44.430Z,1012.32
2022-10-22T04:53:14.924Z,1012.30
2022-10-22T04:53:46.051Z,1012.27
2022-10-22T04:54:16.556Z,1012.24
2022-10-22T04:54:47.490Z,1012.23
2022-10-22T04:55:18.500Z,1012.19
2022-10-22T04:55:49.218Z,1012.17
2022-10-22T04:56:19.662Z,1012.18
2022-10-22T04:56:50.696Z,1012.18
2022-10-22T04:57:21.197Z,1012.19
2022-10-22T04:57:52.195Z,1012.20
2022-10-22T04:58:23.095Z,1012.19
2022-10-22T04:58:54.218Z,1012.15
2022-10-22T04:59:24.724Z,1012.16
2022-10-22T04:59:55.702Z,1012.15
2022-10-22T05:00:26.726Z,1012.16
2022-10-22T05:00:57.265Z,1012.15
2022-10-22T05:01:27.927Z,1012.15
2022-10-22T05:01:58.902Z,1012.15
2022-10-22T05:02:29.389Z,1012.14
2022-10-22T05:03:00.589Z,1012.13
2022-10-22T05:03:31.128Z,1012.11
2022-10-22T05:04:01.583Z,1012.09
2022-10-22T05:04:32.604Z,1012.07
2022-10-22T05:05:03.353Z,1012.05
2022-10-22T05:05:33.851Z,1012.00
2022-10-22T05:06:04.401Z,1011.98
2022-10-22T05:06:34.927Z,1011.99
2022-10-22T05:07:05.859Z,1012.00
2022-10-22T05:07:36.801Z,1012.01
2022-10-22T05:08:07.930Z,1012.02
2022-10-22T05:08:38.527Z,1012.04
2022-10-22T05:09:09.144Z,1012.06
2022-10-22T05:09:39.766Z,1012.04
2022-10-22T05:10:10.778Z,1012.04
2022-10-22T05:10:41.707Z,1012.07
2022-10-22T05:11:12.859Z,1012.05
2022-10-22T05:11:43.288Z,1012.04
2022-10-22T05:12:14.288Z,1012.04
2022-10-22T05:12:44.743Z,1012.02
2022-10-22T05:13:15.670Z,1012.00
2022-10-22T05:13:46.802Z,1012.01
2022-10-22T05:14:17.430Z,1011.99
2022-10-22T05:14:47.920Z,1011.98
2022-10-22T05:15:18.848Z,1011.97
2022-10-22T05:15:49.848Z,1011.97
2022-10-22T05:16:20.855Z,1011.93
2022-10-22T05:16:51.285Z,1011.92
2022-10-22T05:17:22.405Z,1011.93
2022-10-22T05:17:52.915Z,1011.90
2022-10-22T05:18:23.416Z,1011.90
2022-10-22T05:18:54.370Z,1011.86
2022-10-22T05:19:25.364Z,1011.83
2022-10-22T05:19:56.349Z,1011.81
2022-10-22T05:20:27.440Z,1011.79
2022-10-22T05:20:57.929Z,1011.79
2022-10-22T05:21:28.910Z,1011.78
2022-10-22T05:21:59.432Z,1011.79
2022-10-22T05:22:29.848Z,1011.77
2022-10-22T05:23:00.854Z,1011.78
2022-10-22T05:23:31.458Z,1011.78
2022-10-22T05:24:01.961Z,1011.76
2022-10-22T05:24:32.466Z,1011.76
2022-10-22T05:25:02.980Z,1011.74
2022-10-22T05:25:33.518Z,1011.74
2022-10-22T05:26:04.032Z,1011.74
2022-10-22T05:26:34.775Z,1011.73
2022-10-22T05:27:05.285Z,1011.71
2022-10-22T05:27:35.729Z,1011.69
2022-10-22T05:28:06.754Z,1011.67
2022-10-22T05:28:37.189Z,1011.65
2022-10-22T05:29:08.085Z,1011.63
2022-10-22T05:29:39.272Z,1011.60
2022-10-22T05:30:09.765Z,1011.59
2022-10-22T05:30:40.698Z,1011.57
2022-10-22T05:31:11.628Z,1011.54
2022-10-22T05:31:42.632Z,1011.55
2022-10-22T05:32:13.072Z,1011.51
2022-10-22T05:32:44.251Z,1011.50
2022-10-22T05:33:14.780Z,1011.50
2022-10-22T05:33:45.267Z,1011.54
2022-10-22T05:34:16.291Z,1011.58
2022-10-22T05:34:46.771Z,1011.61
2022-10-22T05:35:17.781Z,1011.65
2022-10-22T05:35:48.914Z,1011.69
2022-10-22T05:36:19.419Z,1011.72
2022-10-22T05:36:49.897Z,1011.71
2022-10-22T05:37:20.901Z,1011.73
2022-10-22T05:37:51.444Z,1011.73
2022-10-22T05:38:21.974Z,1011.71
2022-10-22T05:38:53.080Z,1011.66
2022-10-22T05:39:23.559Z,1011.70
2022-10-22T05:40:01.911Z,1011.65
2022-10-22T05:40:31.001Z,1011.64
2022-10-22T05:40:57.490Z,1011.61
2022-10-22T05:41:27.182Z,1011.60
2022-10-22T05:41:58.049Z,1011.57
2022-10-22T05:42:28.534Z,1011.52
2022-10-22T05:42:59.467Z,1011.50
2022-10-22T05:43:30.472Z,1011.49
2022-10-22T05:44:01.426Z,1011.46
2022-10-22T05:44:32.639Z,1011.46
2022-10-22T05:45:03.165Z,1011.47
2022-10-22T05:45:33.668Z,1011.48
2022-10-22T05:46:04.159Z,1011.49
2022-10-22T05:46:35.146Z,1011.53
2022-10-22T05:47:05.706Z,1011.57
2022-10-22T05:47:36.418Z,1011.60
2022-10-22T05:48:06.886Z,1011.62
2022-10-22T05:48:37.317Z,1011.64
2022-10-22T05:49:08.296Z,1011.65
2022-10-22T05:49:39.327Z,1011.65
2022-10-22T05:50:09.819Z,1011.65
2022-10-22T05:50:40.961Z,1011.65
2022-10-22T05:51:11.463Z,1011.68
2022-10-22T05:51:42.385Z,1011.70
2022-10-22T05:52:13.393Z,1011.72
2022-10-22T05:52:44.038Z,1011.73
2022-10-22T05:53:14.808Z,1011.75
2022-10-22T05:53:45.965Z,1011.78
2022-10-22T05:54:16.462Z,1011.83
2022-10-22T05:54:47.455Z,1011.81
2022-10-22T05:55:18.447Z,1011.83
2022-10-22T05:55:48.964Z,1011.84
2022-10-22T05:56:19.388Z,1011.83
2022-10-22T05:56:50.479Z,1011.85
2022-10-22T05:57:20.996Z,1011.89
2022-10-22T05:57:51.415Z,1011.94
2022-10-22T05:58:22.344Z,1011.96
2022-10-22T05:58:53.398Z,1011.99
2022-10-22T05:59:23.895Z,1011.98
2022-10-22T05:59:55.102Z,1012.01
2022-10-22T06:00:25.600Z,1012.01
2022-10-22T06:00:56.118Z,1012.00
2022-10-22T06:01:26.628Z,1012.01
2022-10-22T06:01:57.620Z,1012.02
2022-10-22T06:02:28.233Z,1012.04
2022-10-22T06:02:58.960Z,1012.03
2022-10-22T06:03:29.395Z,1012.04
2022-10-22T06:04:00.333Z,1012.07
2022-10-22T06:04:31.263Z,1012.08
2022-10-22T06:05:02.254Z,1012.10
2022-10-22T06:05:33.170Z,1012.18
2022-10-22T06:06:04.307Z,1012.21
2022-10-22T06:06:34.768Z,1012.26
2022-10-22T06:07:05.642Z,1012.27
2022-10-22T06:07:36.594Z,1012.29
2022-10-22T06:08:07.473Z,1012.32
2022-10-22T06:08:38.390Z,1012.33
2022-10-22T06:09:09.630Z,1012.35
2022-10-22T06:09:40.113Z,1012.38
2022-10-22T06:10:11.063Z,1012.41
2022-10-22T06:10:41.922Z,1012.43
2022-10-22T06:11:12.841Z,1012.43
2022-10-22T06:11:43.721Z,1012.46
2022-10-22T06:12:14.863Z,1012.46
2022-10-22T06:12:45.291Z,1012.48
2022-10-22T06:13:16.201Z,1012.48
2022-10-22T06:13:47.132Z,1012.50